Nearby METAR Reports

 

K8A0 - Albertville Muni, Alabama, USA
Distance from station: SW 1mi, 2km
Updated: 02/22/2019 3:15pm
Overcast
Overcast
 Wind from E
Wind: E 9 mph , 15 km/h
Temperature: 55°F , 13°C
Dew Point: 52°F , 11°C
Humidity: 88%
Barometer: 30.14 inHg , 1020.7 hPa
Clouds: Overcast
Visibility: 10 miles , 16 km
Cloud details: Overcast 600 ft
2019/02/22 21:15 K8A0 222115Z AUTO 09008KT 10SM OVC006 13/11 A3014 RMK AO2
KGAD - Gadsden Muni, Alabama, USA
Distance from station: SSE 21mi, 35km
Updated: 02/22/2019 2:56pm
Overcast
Overcast
 Wind from NE
Wind: NE 9 mph , 15 km/h
Temperature: 55°F , 13°C
Dew Point: 55°F , 13°C
Humidity: 100%
Barometer: 30.16 inHg , 1021.3 hPa
Clouds: Overcast
Visibility: 10 miles , 16 km
Cloud details: Overcast 700 ft
2019/02/22 20:56 KGAD 222056Z AUTO 05008KT 10SM OVC007 13/13 A3016 RMK AO2 SLP218 60002 T01280128 56012
 
K4A6 - Scottsboro, Alabama, USA
Distance from station: NNE 33mi, 53km
Updated: 02/22/2019 3:35pm
Overcast
Overcast
 Wind from NE
Wind: NE 9 mph , 15 km/h
Temperature: 55°F , 13°C
Dew Point: 55°F , 13°C
Humidity: 100%
Barometer: 30.17 inHg , 1021.7 hPa
Clouds: Overcast
Visibility: 10 miles , 16 km
Cloud details: Mostly cloudy 1400 ft
Overcast 2000 ft
2019/02/22 21:35 K4A6 222135Z AUTO 05008KT 10SM BKN014 OVC020 13/13 A3017 RMK AO2
K4A9 - Ft Payne/Isbell, Alabama, USA
Distance from station: ENE 33mi, 54km
Updated: 02/22/2019 3:35pm
Overcast
Overcast
 Wind from ENE
Wind: ENE 7 mph , 11 km/h
Temperature: 57°F , 14°C
Dew Point: 54°F , 12°C
Humidity: 88%
Barometer: 30.16 inHg , 1021.3 hPa
Clouds: Overcast
Visibility: 10 miles , 16 km
Cloud details: Overcast 1300 ft
2019/02/22 21:35 K4A9 222135Z AUTO 07006KT 10SM OVC013 14/12 A3016 RMK AO2 T01360117
 
KCMD - Cullman/Folsom F, Alabama, USA
Distance from station: W 35mi, 57km
Updated: 02/22/2019 3:35pm
Overcast
Overcast
 Wind from ENE
Wind: ENE 7 mph , 11 km/h
Temperature: 57°F , 14°C
Dew Point: 54°F , 12°C
Humidity: 88%
Barometer: 30.16 inHg , 1021.3 hPa
Clouds: Overcast
Visibility: 10 miles , 16 km
Cloud details: Overcast 700 ft
2019/02/22 21:35 KCMD 222135Z AUTO 06006KT 10SM OVC007 14/12 A3016 RMK AO2 T01350121
KHUA - Redstone Arsenal, Alabama, USA
Distance from station: NW 40mi, 64km
Updated: 02/22/2019 3:08pm
Light rain, Mist, Overcast
Light rain, Mist, Overcast
 Wind from NE
Wind: NE 7 mph , 11 km/h
Temperature: 54°F , 12°C
Dew Point: 54°F , 12°C
Humidity: 100%
Barometer: 30.15 inHg , 1021 hPa
Summary: Light rain, Mist
Clouds: Overcast
Visibility: 2 miles , 3 km
Cloud details: Overcast 400 ft
2019/02/22 21:08 KHUA 222108Z AUTO 05006KT 2SM -RA BR OVC004 12/12 A3015 RMK AO2 VIS 1 1/2V2 SLPNO
 
KHSV - Huntsville, Alabama, USA
Distance from station: NW 42mi, 68km
Updated: 02/22/2019 2:53pm
Mist, Overcast
Mist, Overcast
 Wind from NNE
Wind: NNE 7 mph , 11 km/h
Temperature: 55°F , 13°C
Dew Point: 54°F , 12°C
Humidity: 94%
Barometer: 30.15 inHg , 1021 hPa
Summary: Mist
Clouds: Overcast
Visibility: 4 miles , 6 km
Cloud details: Mostly cloudy 500 ft
Overcast 5500 ft
2019/02/22 20:53 KHSV 222053Z 03006KT 4SM BR BKN005 OVC055 13/12 A3015 RMK AO2 RAE53 SLP208 P0002 60004 T01330122 58006
KMDQ - Huntsville/Madis, Alabama, USA
Distance from station: NNW 47mi, 75km
Updated: 02/22/2019 3:35pm
Light drizzle, Overcast
Light drizzle, Overcast
 Wind from NNE
Wind: NNE 6 mph , 9 km/h
Temperature: 54°F , 12°C
Dew Point: 52°F , 11°C
Humidity: 94%
Barometer: 30.16 inHg , 1021.3 hPa
Summary: Light Drizzle
Clouds: Overcast
Visibility: 10 miles , 16 km
Cloud details: Overcast 500 ft
2019/02/22 21:35 KMDQ 222135Z AUTO 02005KT 10SM -DZ OVC005 12/11 A3016 RMK A02 T01190112
 
KASN - Talladega, Alabama, USA
Distance from station: SSE 48mi, 77km
Updated: 02/22/2019 3:35pm
Overcast
Overcast
 Wind from NNE
Wind: NNE 5 mph , 7 km/h
Temperature: 57°F , 14°C
Dew Point: 55°F , 13°C
Humidity: 94%
Barometer: 30.14 inHg , 1020.7 hPa
Clouds: Overcast
Visibility: 10 miles , 16 km
Cloud details: Overcast 700 ft
2019/02/22 21:35 KASN 222135Z AUTO 02004KT 10SM OVC007 14/13 A3014 RMK AO2 T01390132
KDCU - Decatur, Alabama, USA
Distance from station: NW 49mi, 80km
Updated: 02/22/2019 2:53pm
Light rain, Overcast
Light rain, Overcast
 Wind from N
Wind: N 8 mph , 13 km/h
Temperature: 54°F , 12°C
Dew Point: 52°F , 11°C
Humidity: 94%
Barometer: 30.16 inHg , 1021.3 hPa
Summary: Light rain
Clouds: Overcast
Visibility: 7 miles , 11 km
Cloud details: Mostly cloudy 600 ft
Overcast 5000 ft
2019/02/22 20:53 KDCU 222053Z AUTO 01007KT 7SM -RA BKN006 OVC050 12/11 A3016 RMK AO2 SLP213 P0000 60000 T01220111 57006
 
KGKT - Sevierville, Tennessee, USA
Distance from station: NE 235mi, 378km
Updated: 02/22/2019 3:35pm
Mostly cloudy
Mostly cloudy
 Wind from varies
Wind: varies 6 mph , 9 km/h
Temperature: 52°F , 11°C
Dew Point: 50°F , 10°C
Humidity: 94%
Barometer: 30.22 inHg , 1023.4 hPa
Clouds: Mostly cloudy
Visibility: 8 miles , 13 km
Cloud details: Few Clouds 800 ft
Few Clouds 1400 ft
Mostly cloudy 2200 ft
2019/02/22 21:35 KGKT 222135Z AUTO VRB05KT 8SM FEW008 FEW014 BKN022 11/10 A3022 RMK A01
KECP - Panama City, Florida, USA
Distance from station: S 330mi, 531km
Updated: 02/22/2019 2:53pm
Overcast
Overcast
 Wind from SSE
Wind: SSE 10 mph , 17 km/h
Temperature: 75°F , 24°C
Dew Point: 68°F , 20°C
Humidity: 78%
Barometer: 30.11 inHg , 1019.6 hPa
Clouds: Overcast
Visibility: 10 miles , 16 km
Cloud details: Partly cloudy 1700 ft
Overcast 11000 ft
2019/02/22 20:53 KECP 222053Z 15009KT 10SM SCT017 OVC110 24/20 A3011 RMK AO2 SLP208 T02390200 56014
 
KNYL - Yuma MCAS, Arizona, USA
Distance from station: SW 1900mi, 3600km
Updated: 02/22/2019 2:57pm
Partly cloudy
Partly cloudy
 Wind from NW
Wind: NW 12 mph , 19 km/h, Gust: 23 mph , 37 km/h
Temperature: 57°F , 14°C
Dew Point: 25°F , -4°C
Humidity: 29%
Barometer: 29.95 inHg , 1014.2 hPa
Clouds: Partly cloudy
Visibility: 7 miles , 11 km
Cloud details: Partly cloudy 6000 ft
2019/02/22 20:57 KNYL 222057Z 32010G20KT 7SM SCT060 14/M04 A2995 RMK AO2 SLP141 T01441039 $